^^
Monroeville - KPAMUNIC2 Historical Data
 
Daily Summary for September 28, 2021 Units:  English    Metric   Both
Daily Weekly Monthly Yearly
  Current: High: Low: Average:
Temperature: 71.4 °F 71.9 °F 61.6 °F 64.4 °F
Dew Point: 62.8 °F 64.3 °F 58.7 °F 62 °F
Humidity: 74.3% 99% 74.3% 92%
Wind Speed: 1.9mph 2.3mph 0mph 0.8mph
Wind Gust: 5.6mph 7.6mph - -
WindSSW - - SSE
Pressure: 29.93 in 29.95 in 29.87 in -
Precipitation: 0.56 in      
 
 
Tabular Data for September 28, 2021
Time Temperature Dew Point Pressure Wind Wind Speed Wind Gust Humidity Rainfall Rate (Hourly) solar
00:04 65 °F 59.2 °F 29.92 in South 0.8 mph 4.7 mph 81.4% 0.00 in 0 W/m2
00:09 64.9 °F 58.7 °F 29.91 in SE 0.2 mph 2 mph 80.1% 0.00 in 0 W/m2
00:14 65.5 °F 59 °F 29.91 in ENE 1 mph 4 mph 79.6% 0.00 in 0 W/m2
00:19 65.5 °F 59 °F 29.92 in NNE 0.5 mph 4 mph 79.5% 0.00 in 0 W/m2
00:24 65.1 °F 59 °F 29.92 in NE 0.7 mph 2.7 mph 80.6% 0.00 in 0 W/m2
00:29 64.9 °F 59 °F 29.92 in SE 0.7 mph 3.1 mph 81.3% 0.00 in 0 W/m2
00:34 64.5 °F 59 °F 29.91 in South 0.2 mph 1.6 mph 82.3% 0.00 in 0 W/m2
00:39 64.3 °F 59 °F 29.92 in ENE 0.4 mph 2 mph 82.8% 0.00 in 0 W/m2
00:44 64.7 °F 59.1 °F 29.91 in SE 0.4 mph 2 mph 81.8% 0.00 in 0 W/m2
00:49 65.2 °F 59.3 °F 29.91 in South 0.5 mph 1.8 mph 81.1% 0.00 in 0 W/m2
00:54 65.6 °F 59.3 °F 29.91 in WNW 0.3 mph 2.9 mph 80.1% 0.00 in 0 W/m2
00:59 65.8 °F 59.9 °F 29.92 in SW 0.6 mph 5.1 mph 81.1% 0.00 in 0 W/m2
01:04 64.9 °F 60.6 °F 29.92 in SE 1.1 mph 3.6 mph 85.9% 0.02 in 0 W/m2
01:09 63.8 °F 60.9 °F 29.92 in SE 0.2 mph 2 mph 90.2% 0.05 in 0 W/m2
01:14 63.4 °F 60.7 °F 29.91 in Calm   1.1 mph 91% 0.05 in 0 W/m2
01:19 63.2 °F 60.6 °F 29.91 in East 0.2 mph 1.6 mph 91.2% 0.00 in 0 W/m2
01:24 63 °F 60.8 °F 29.91 in Calm   1.3 mph 92.2% 0.00 in 0 W/m2
01:29 62.8 °F 60.9 °F 29.91 in Calm   1.1 mph 93.1% 0.00 in 0 W/m2
01:34 62.5 °F 60.7 °F 29.91 in ESE 0.1 mph 1.6 mph 93.8% 0.00 in 0 W/m2
01:39 62.4 °F 60.6 °F 29.91 in ESE 0.1 mph 1.6 mph 94% 0.00 in 0 W/m2
01:44 62.2 °F 60.4 °F 29.91 in Calm   1.1 mph 94.1% 0.00 in 0 W/m2
01:49 62 °F 60.3 °F 29.90 in NE 0.3 mph 2 mph 94% 0.00 in 0 W/m2
01:54 62.1 °F 60.3 °F 29.90 in Calm   1.1 mph 94% 0.00 in 0 W/m2
01:59 62.2 °F 60.2 °F 29.90 in Calm   1.3 mph 93% 0.00 in 0 W/m2
02:04 62.2 °F 60.2 °F 29.90 in East 0.1 mph 1.8 mph 92.8% 0.00 in 0 W/m2
02:09 62.3 °F 60.3 °F 29.90 in ESE 0.1 mph 1.8 mph 92.9% 0.00 in 0 W/m2
02:14 62.2 °F 60.1 °F 29.90 in East 0.2 mph 1.8 mph 92.5% 0.00 in 0 W/m2
02:19 62.5 °F 60 °F 29.90 in Calm   1.8 mph 91.6% 0.02 in 0 W/m2
02:24 62.7 °F 60.1 °F 29.90 in East 0.1 mph 1.8 mph 91.2% 0.02 in 0 W/m2
02:29 62.8 °F 59.9 °F 29.90 in Calm   2 mph 90.4% 0.02 in 0 W/m2
02:34 62.7 °F 60 °F 29.90 in Calm   2 mph 91% 0.00 in 0 W/m2
02:39 62.8 °F 59.9 °F 29.89 in North 0.1 mph 1.6 mph 90.5% 0.00 in 0 W/m2
02:44 62.8 °F 60 °F 29.89 in Calm   2 mph 90.8% 0.00 in 0 W/m2
02:49 63 °F 60 °F 29.89 in Calm   2 mph 90.2% 0.00 in 0 W/m2
02:54 63.1 °F 60.1 °F 29.89 in Calm   2.5 mph 90.1% 0.00 in 0 W/m2
02:59 63.1 °F 60.1 °F 29.89 in SE 0.1 mph 2.5 mph 90.3% 0.00 in 0 W/m2
03:04 63.1 °F 60 °F 29.88 in NE 0.3 mph 1.6 mph 89.8% 0.00 in 0 W/m2
03:09 63.6 °F 60 °F 29.89 in Calm   1.6 mph 88.2% 0.00 in 0 W/m2
03:14 63.8 °F 60.4 °F 29.88 in ENE 0.3 mph 2 mph 88.7% 0.00 in 0 W/m2
03:19 63.5 °F 60.4 °F 29.88 in Calm   2 mph 89.9% 0.00 in 0 W/m2
03:24 63.7 °F 60.2 °F 29.87 in South 0.5 mph 3.4 mph 88.3% 0.00 in 0 W/m2
03:29 63.9 °F 60.9 °F 29.87 in SSE 0.1 mph 3.4 mph 90.3% 0.00 in 0 W/m2
03:34 63.5 °F 60.8 °F 29.87 in ESE 1.1 mph 3.1 mph 90.7% 0.00 in 0 W/m2
03:39 64.6 °F 60.3 °F 29.87 in WNW 1.9 mph 6.3 mph 86.2% 0.00 in 0 W/m2
03:44 64.6 °F 61.3 °F 29.87 in SSE 1 mph 5.8 mph 88.8% 0.09 in 0 W/m2
03:49 64 °F 61.5 °F 29.87 in SW 1.4 mph 5.8 mph 91.7% 0.54 in 0 W/m2
03:54 62.9 °F 61.5 °F 29.87 in ESE 1.4 mph 4.3 mph 95.2% 1.06 in 0 W/m2
03:59 62.7 °F 61.4 °F 29.87 in NW 0.4 mph 3.6 mph 95.2% 0.99 in 0 W/m2
04:04 62.6 °F 61.5 °F 29.88 in SW 0.6 mph 3.4 mph 96% 0.57 in 0 W/m2
04:09 62.5 °F 61.6 °F 29.88 in SE 0.7 mph 2.2 mph 96.9% 0.14 in 0 W/m2
04:14 62.3 °F 61.4 °F 29.87 in East 0.2 mph 2.2 mph 97.1% 0.14 in 0 W/m2
04:19 62.2 °F 61.7 °F 29.87 in East 0.3 mph 1.8 mph 98% 0.17 in 0 W/m2
04:24 62.2 °F 61.7 °F 29.88 in SE 0.4 mph 2 mph 98% 0.07 in 0 W/m2
04:29 62.2 °F 61.7 °F 29.88 in ESE 0.3 mph 2 mph 98% 0.07 in 0 W/m2
04:34 62.2 °F 61.7 °F 29.89 in SE 0.3 mph 1.6 mph 98% 0.05 in 0 W/m2
04:39 62.2 °F 61.7 °F 29.89 in SSE 0.3 mph 2.2 mph 98% 0.14 in 0 W/m2
04:44 62.2 °F 61.7 °F 29.89 in South 0.3 mph 2.2 mph 98% 0.21 in 0 W/m2
04:49 62.2 °F 61.9 °F 29.89 in SSE 0.8 mph 2.5 mph 98.9% 0.21 in 0 W/m2
04:54 62.2 °F 61.9 °F 29.89 in SSE 0.9 mph 4.9 mph 99% 0.12 in 0 W/m2
04:59 62.3 °F 62 °F 29.89 in SE 1.2 mph 3.1 mph 99% 0.14 in 0 W/m2
05:04 62.4 °F 62.1 °F 29.89 in SSW 1 mph 3.1 mph 99% 0.12 in 0 W/m2
05:09 62.6 °F 62.2 °F 29.89 in SE 1 mph 3.6 mph 98.5% 0.05 in 0 W/m2
05:14 62.6 °F 62.1 °F 29.89 in SE 1.5 mph 3.1 mph 98% 0.05 in 0 W/m2
05:19 62.6 °F 62.1 °F 29.89 in SSE 1.1 mph 2.9 mph 98% 0.02 in 0 W/m2
05:24 62.8 °F 62.2 °F 29.89 in South 1.3 mph 3.1 mph 98% 0.02 in 0 W/m2
05:29 62.8 °F 62.2 °F 29.89 in SSE 0.5 mph 3.1 mph 98% 0.05 in 0 W/m2
05:34 62.8 °F 62.2 °F 29.90 in East 0.3 mph 1.6 mph 98% 0.05 in 0 W/m2
05:39 62.6 °F 61.9 °F 29.91 in SSE 0.6 mph 2.2 mph 97.5% 0.07 in 0 W/m2
05:44 62.7 °F 61.8 °F 29.90 in ESE 0.5 mph 2 mph 97% 0.07 in 0 W/m2
05:49 62.6 °F 61.7 °F 29.93 in SE 1.7 mph 6.5 mph 97% 0.28 in 0 W/m2
05:54 62.4 °F 61.5 °F 29.93 in SSW 2.2 mph 5.1 mph 97% 1.11 in 0 W/m2
05:59 62.1 °F 61.3 °F 29.91 in SSE 2.1 mph 6 mph 97.3% 1.13 in 0 W/m2
06:04 62.1 °F 61.2 °F 29.90 in NNE 2 mph 6 mph 97% 0.78 in 0 W/m2
06:09 62.1 °F 61.1 °F 29.90 in South 2.3 mph 5.4 mph 96.3% 0.14 in 0 W/m2
06:14 62 °F 61 °F 29.90 in SSE 1.1 mph 4.5 mph 96.3% 0.12 in 0 W/m2
06:19 61.8 °F 60.9 °F 29.91 in SSE 1.7 mph 4.3 mph 97% 0.14 in 0 W/m2
06:24 61.7 °F 60.8 °F 29.91 in SE 0.7 mph 4.3 mph 97% 0.12 in 0 W/m2
06:29 61.7 °F 60.9 °F 29.91 in ESE 1.6 mph 6.5 mph 97.2% 0.02 in 0 W/m2
06:34 61.8 °F 60.9 °F 29.90 in SSE 1.2 mph 3.6 mph 97.2% 0.02 in 0 W/m2
06:39 61.7 °F 61.1 °F 29.90 in ESE 0.9 mph 3.1 mph 97.8% 0.02 in 0 W/m2
06:44 61.7 °F 61.2 °F 29.90 in ENE 0.5 mph 2.9 mph 98% 0.00 in 0 W/m2
06:49 61.7 °F 61.2 °F 29.90 in SE 0.5 mph 2.2 mph 98% 0.00 in 0 W/m2
06:54 61.6 °F 61.2 °F 29.90 in SSE 0.7 mph 2.7 mph 98.6% 0.00 in 0 W/m2
06:59 61.7 °F 61.2 °F 29.90 in South 1.2 mph 4.3 mph 98.3% 0.00 in 0 W/m2
07:04 61.7 °F 61.2 °F 29.90 in SSW 1.2 mph 6 mph 98% 0.00 in 0 W/m2
07:09 61.8 °F 61.2 °F 29.90 in SSE 1.3 mph 2.9 mph 98% 0.00 in 0 W/m2
07:14 61.9 °F 61.3 °F 29.91 in SSE 1.2 mph 5.4 mph 98% 0.00 in 0 W/m2
07:19 61.9 °F 61.3 °F 29.91 in SSE 1.8 mph 4 mph 98% 0.00 in 0 W/m2
07:24 62.1 °F 61.5 °F 29.91 in South 0.6 mph 4 mph 98% 0.00 in 0 W/m2
07:29 62.2 °F 61.5 °F 29.91 in SSW 0.9 mph 4 mph 97.5% 0.00 in 0 W/m2
07:34 62.4 °F 61.7 °F 29.92 in SE 0.9 mph 2.7 mph 97.6% 0.00 in 0 W/m2
07:39 62.2 °F 61.7 °F 29.91 in SE 1.3 mph 5.6 mph 98% 0.00 in 0 W/m2
07:44 62.4 °F 61.9 °F 29.91 in SSE 1.1 mph 4.9 mph 98% 0.00 in 4 W/m2
07:49 62.5 °F 61.8 °F 29.91 in SSE 0.9 mph 4.9 mph 97.5% 0.00 in 4 W/m2
07:54 62.5 °F 62 °F 29.92 in NW 0.3 mph 2.5 mph 98% 0.00 in 4 W/m2
07:59 62.4 °F 61.9 °F 29.92 in SE 0.6 mph 2.2 mph 98% 0.00 in 2 W/m2
08:04 62.4 °F 61.9 °F 29.92 in SE 1.2 mph 5.1 mph 98% 0.00 in 2 W/m2
08:09 62.5 °F 62 °F 29.92 in SE 1.5 mph 4.5 mph 97.8% 0.00 in 2 W/m2
08:14 62.8 °F 62 °F 29.92 in SSE 1.6 mph 4.7 mph 97.1% 0.00 in 0 W/m2
08:19 63 °F 62.1 °F 29.92 in SE 1.2 mph 4.7 mph 97% 0.00 in 2 W/m2
08:24 62.9 °F 62 °F 29.92 in ENE 1.5 mph 4 mph 97% 0.00 in 6 W/m2
08:29 63 °F 62.1 °F 29.91 in SSE 2.1 mph 4.5 mph 97% 0.00 in 7 W/m2
08:34 63.1 °F 62.2 °F 29.91 in ESE 0.9 mph 4.3 mph 97% 0.00 in 5 W/m2
08:39 63.2 °F 62.2 °F 29.91 in NE 0.7 mph 5.4 mph 96.3% 0.00 in 5 W/m2
08:44 63.2 °F 62.3 °F 29.92 in ESE 1.3 mph 2.9 mph 97% 0.00 in 11 W/m2
08:49 63.1 °F 62.2 °F 29.92 in NW 1.6 mph 3.6 mph 97% 0.00 in 10 W/m2
08:54 63.4 °F 62.3 °F 29.92 in West 1.7 mph 6 mph 96.3% 0.00 in 22 W/m2
08:59 63.6 °F 62.5 °F 29.92 in WNW 0.7 mph 4 mph 96.1% 0.00 in 28 W/m2
09:04 63.7 °F 62.5 °F 29.92 in West 1 mph 4 mph 95.7% 0.00 in 50 W/m2
09:09 63.8 °F 62.8 °F 29.92 in SE 1.1 mph 3.8 mph 96.5% 0.00 in 64 W/m2
09:14 63.7 °F 62.8 °F 29.92 in WSW 0.6 mph 3.8 mph 96.7% 0.00 in 45 W/m2
09:19 63.9 °F 62.9 °F 29.92 in SW 1.3 mph 6.3 mph 96.2% 0.00 in 61 W/m2
09:24 64 °F 62.8 °F 29.92 in SSW 1.7 mph 5.8 mph 95.6% 0.00 in 67 W/m2
09:29 64.1 °F 62.9 °F 29.92 in SE 1.7 mph 5.8 mph 95.8% 0.00 in 65 W/m2
09:34 64.1 °F 62.9 °F 29.92 in SSE 1.4 mph 4.9 mph 95.6% 0.00 in 71 W/m2
09:39 64.3 °F 63.1 °F 29.92 in WSW 1 mph 4.3 mph 95.7% 0.00 in 69 W/m2
09:44 64.5 °F 63 °F 29.92 in WSW 0.8 mph 4.5 mph 94.9% 0.00 in 77 W/m2
09:49 64.7 °F 63.2 °F 29.92 in South 1.1 mph 4.3 mph 94.9% 0.00 in 89 W/m2
09:54 64.8 °F 63.2 °F 29.92 in WSW 1 mph 6 mph 94.8% 0.00 in 82 W/m2
09:59 64.8 °F 63.2 °F 29.92 in SSW 1.3 mph 4.7 mph 94.4% 0.00 in 100 W/m2
10:04 65 °F 63.5 °F 29.92 in ENE 0.9 mph 2.7 mph 94.6% 0.00 in 105 W/m2
10:09 65 °F 63.5 °F 29.92 in ESE 0.8 mph 4.9 mph 94.8% 0.00 in 59 W/m2
10:14 65.1 °F 63.3 °F 29.92 in SE 1 mph 4.9 mph 94.1% 0.00 in 70 W/m2
10:19 65.2 °F 63.4 °F 29.92 in WSW 0.2 mph 2.9 mph 94% 0.00 in 76 W/m2
10:24 65.3 °F 63.8 °F 29.93 in SE 0.8 mph 2.9 mph 94.7% 0.00 in 61 W/m2
10:29 65.2 °F 63.5 °F 29.93 in SW 0.8 mph 4.7 mph 94.2% 0.00 in 42 W/m2
10:34 65.3 °F 63.6 °F 29.93 in West 0.3 mph 4.7 mph 94.3% 0.00 in 65 W/m2
10:39 65.4 °F 64 °F 29.92 in SE 0.7 mph 2.2 mph 95.3% 0.00 in 62 W/m2
10:44 65.4 °F 64 °F 29.93 in SSE 0.5 mph 2.2 mph 95.3% 0.00 in 45 W/m2
10:49 65.6 °F 64.1 °F 29.93 in SW 0.8 mph 2.9 mph 94.9% 0.00 in 48 W/m2
10:54 65.6 °F 63.9 °F 29.93 in WNW 0.6 mph 2.9 mph 94.3% 0.00 in 39 W/m2
10:59 65.8 °F 64.1 °F 29.93 in ENE 0.4 mph 2.7 mph 94.4% 0.00 in 60 W/m2
11:04 65.8 °F 64.2 °F 29.93 in SSE 0.2 mph 2.9 mph 94.7% 0.00 in 42 W/m2
11:09 65.9 °F 63.9 °F 29.93 in SW 0.5 mph 4.5 mph 93.1% 0.00 in 43 W/m2
11:14 66.2 °F 63.7 °F 29.93 in SW 1.6 mph 4.7 mph 91.6% 0.00 in 48 W/m2
11:19 66.3 °F 63.7 °F 29.94 in SSW 0.9 mph 4.9 mph 91.5% 0.00 in 44 W/m2
11:24 66.2 °F 63.8 °F 29.93 in West 0.9 mph 4.9 mph 91.7% 0.00 in 48 W/m2
11:29 66.2 °F 64 °F 29.93 in WSW 0.5 mph 3.4 mph 92.7% 0.00 in 53 W/m2
11:34 66.2 °F 63.9 °F 29.93 in South 0.7 mph 3.4 mph 92.3% 0.00 in 56 W/m2
11:39 66.4 °F 63.9 °F 29.93 in SW 0.1 mph 2.9 mph 91.7% 0.00 in 71 W/m2
11:44 66.4 °F 63.8 °F 29.93 in South 1 mph 3.1 mph 91.4% 0.00 in 50 W/m2
11:49 66.5 °F 63.7 °F 29.93 in SW 1.1 mph 3.6 mph 90.9% 0.00 in 78 W/m2
11:54 66.6 °F 64.1 °F 29.93 in SE 0.6 mph 2.9 mph 91.8% 0.00 in 67 W/m2
11:59 66.6 °F 63.8 °F 29.94 in SSW 0.8 mph 4.5 mph 90.9% 0.00 in 70 W/m2
12:04 66.7 °F 63.8 °F 29.94 in West 0.6 mph 4 mph 90.4% 0.00 in 69 W/m2
12:09 66.6 °F 64 °F 29.94 in SW 0.4 mph 3.6 mph 91.3% 0.00 in 50 W/m2
12:14 66.6 °F 63.8 °F 29.94 in SSW 1.4 mph 4.3 mph 90.7% 0.00 in 86 W/m2
12:19 66.7 °F 63.8 °F 29.94 in SSW 1.1 mph 4.3 mph 90.4% 0.00 in 110 W/m2
12:24 66.9 °F 64.1 °F 29.94 in NNW 0.6 mph 3.4 mph 90.8% 0.00 in 66 W/m2
12:29 66.7 °F 63.7 °F 29.93 in SSW 1.4 mph 5.8 mph 89.9% 0.00 in 40 W/m2
12:34 66.7 °F 64.1 °F 29.94 in SW 0.2 mph 2.9 mph 91.3% 0.00 in 62 W/m2
12:39 66.8 °F 64.2 °F 29.94 in Calm   1.6 mph 91.2% 0.00 in 127 W/m2
12:44 67.1 °F 64.3 °F 29.94 in NE 0.5 mph 3.8 mph 90.8% 0.00 in 130 W/m2
12:49 67.4 °F 64.1 °F 29.94 in SSW 1.3 mph 4.5 mph 89.4% 0.00 in 104 W/m2
12:54 67.2 °F 63.6 °F 29.94 in SSW 1.1 mph 5.8 mph 88.4% 0.00 in 45 W/m2
12:59 66.9 °F 63.3 °F 29.94 in WSW 1.6 mph 7.4 mph 88.3% 0.00 in 50 W/m2
13:04 66.6 °F 63.6 °F 29.94 in SE 0.8 mph 3.1 mph 90.4% 0.00 in 126 W/m2
13:09 66.8 °F 63.2 °F 29.94 in ENE 1.1 mph 5.1 mph 88.3% 0.00 in 120 W/m2
13:14 67.1 °F 63.4 °F 29.94 in SE 0.6 mph 5.1 mph 87.8% 0.00 in 115 W/m2
13:19 67.3 °F 63.7 °F 29.94 in SE 0.5 mph 3.8 mph 88.2% 0.00 in 82 W/m2
13:24 67.1 °F 63.6 °F 29.94 in South 0.7 mph 2.9 mph 88.4% 0.00 in 71 W/m2
13:29 66.9 °F 63.2 °F 29.94 in SE 0.6 mph 4 mph 87.5% 0.00 in 71 W/m2
13:34 66.9 °F 63.1 °F 29.95 in SSE 0.4 mph 4 mph 87.4% 0.00 in 71 W/m2
13:39 66.8 °F 63.2 °F 29.94 in SSE 0.5 mph 2.2 mph 88% 0.00 in 62 W/m2
13:44 66.7 °F 63 °F 29.94 in SE 0.5 mph 2.2 mph 87.7% 0.00 in 67 W/m2
13:49 66.9 °F 63.2 °F 29.94 in SSE 0.2 mph 2.2 mph 87.5% 0.00 in 82 W/m2
13:54 66.9 °F 63.2 °F 29.94 in SSW 0.3 mph 2.2 mph 87.4% 0.00 in 115 W/m2
13:59 67.1 °F 63.1 °F 29.94 in SW 1 mph 3.1 mph 86.8% 0.00 in 146 W/m2
14:04 67.5 °F 63 °F 29.94 in SE 0.5 mph 3.1 mph 85.6% 0.00 in 179 W/m2
14:09 67.9 °F 63.2 °F 29.94 in East 0.6 mph 3.1 mph 84.9% 0.00 in 142 W/m2
14:14 68 °F 63.5 °F 29.95 in SSE 0.1 mph 2.7 mph 85.7% 0.00 in 161 W/m2
14:19 68.1 °F 63.4 °F 29.94 in SSE 0.7 mph 3.6 mph 84.9% 0.00 in 160 W/m2
14:24 68.2 °F 62.8 °F 29.94 in SSW 0.9 mph 4 mph 83.1% 0.00 in 199 W/m2
14:29 68.4 °F 62.9 °F 29.94 in SSW 0.6 mph 4 mph 82.7% 0.00 in 181 W/m2
14:34 68.6 °F 63.4 °F 29.93 in SW 0.6 mph 3.4 mph 83.3% 0.00 in 202 W/m2
14:39 69.2 °F 62.9 °F 29.93 in SW 1.4 mph 5.6 mph 80.6% 0.00 in 585 W/m2
14:44 70.8 °F 63.9 °F 29.93 in SW 1.2 mph 5.6 mph 78.9% 0.00 in 603 W/m2
14:49 71.9 °F 63.7 °F 29.93 in WSW 2.1 mph 5.1 mph 75.2% 0.00 in 607 W/m2
14:54 71.7 °F 63.2 °F 29.93 in ENE 2 mph 5.8 mph 74.4% 0.00 in 596 W/m2
14:59 70.1 °F 62.3 °F 29.93 in NNW 2.3 mph 7.6 mph 76.5% 0.00 in 561 W/m2
15:04 70.4 °F 62.7 °F 29.93 in WNW 1.4 mph 3.8 mph 76.7% 0.00 in 564 W/m2
15:09 71.4 °F 62.8 °F 29.93 in SSW 1.9 mph 5.6 mph 74.3% 0.00 in 519 W/m2
Monroeville, Pennsylvania, USA
Compliments of Weather Underground - 4 mb